Mercur 309 — YP2004 — position and weather

sailwx.info

Track history (hours):
 
Tides and Currents Weather Stations Pressure Air Temp Water Temp Dewpoint Dewpoint Depression Visibility Wind Speed Wind Dir Waves Ship Positions

Mercur 309

Last reported at 2018-Mar-12 16:41 UTC. Time now 2018-Jun-24 20:12 UTC.
Position N 44°15' E 028°16'.
Warning: this ship's position is months out of date.

Length 292 m; draft 3.8 m.

Type: Ship. MMSI: 264162004.

Date/timePositionNaut miles runAvg speedWind from/ knotsBaromVisibWave heightAir tempDewpointWater temp
2018-Mar-12 16:41N 44°15' E 028°16'2 4.5
2018-Mar-12 16:10N 44°15' E 028°19'1 4.3
2018-Mar-12 15:55N 44°15' E 028°20'2 4.5
2018-Mar-12 15:30N 44°14' E 028°22'11 3.8
2018-Mar-12 12:38N 44°06' E 028°33'1 4.4
2018-Mar-12 12:31N 44°06' E 028°34'2 4.3
2018-Mar-12 12:00N 44°06' E 028°37'0 0.4
2018-Mar-12 11:30N 44°06' E 028°37'1 2.3
2018-Mar-12 11:00N 44°06' E 028°39'1 2.2
2018-Mar-12 10:30N 44°08' E 028°39'0 0.0
2018-Mar-12 10:01N 44°08' E 028°39'0 0.0
2018-Mar-12 09:30N 44°08' E 028°39'0 0.0
2018-Mar-12 09:01N 44°08' E 028°39'0 0.0
2018-Mar-12 08:31N 44°08' E 028°39'0 0.0
2018-Mar-12 07:59N 44°08' E 028°39'0 0.0
2018-Mar-12 07:31N 44°08' E 028°39'0 0.0
2018-Mar-12 07:00N 44°08' E 028°39'0 0.8
2018-Mar-12 06:31N 44°08' E 028°39'0 0.0
2018-Mar-12 06:01N 44°08' E 028°39'0 0.0
2018-Mar-12 05:31N 44°08' E 028°39'0 0.0
2018-Mar-12 05:00N 44°08' E 028°39'0 0.0
2018-Mar-12 04:31N 44°08' E 028°39'0 0.0
2018-Mar-12 04:00N 44°08' E 028°39'0 0.0
2018-Mar-12 03:30N 44°08' E 028°39'0 0.0
2018-Mar-12 03:01N 44°08' E 028°39'0 0.0
2018-Mar-12 02:30N 44°08' E 028°39'0 0.0
2018-Mar-12 02:00N 44°08' E 028°39'0 0.0
2018-Mar-12 01:30N 44°08' E 028°39'0 0.0
2018-Mar-12 01:01N 44°08' E 028°39'0 0.0
2018-Mar-12 00:30N 44°08' E 028°39'0 0.0
2018-Mar-12 00:00N 44°08' E 028°39'0 0.0
2018-Mar-11 23:31N 44°08' E 028°39'0 0.0
2018-Mar-11 23:01N 44°08' E 028°39'0 0.0
2018-Mar-11 22:30N 44°08' E 028°39'0 0.0
2018-Mar-11 22:00N 44°08' E 028°39'0 0.0
2018-Mar-11 21:31N 44°08' E 028°39'0 0.0
2018-Mar-11 21:01N 44°08' E 028°39'0 0.0
2018-Mar-11 20:30N 44°08' E 028°39'0 0.0
2018-Mar-11 20:01N 44°08' E 028°39'0 0.0
2018-Mar-11 19:31N 44°08' E 028°39'0 0.0
2018-Mar-11 19:00N 44°08' E 028°39'0 0.5
2018-Mar-11 18:31N 44°08' E 028°39'1 1.4
2018-Mar-11 18:01N 44°08' E 028°39'1 2.0
2018-Mar-11 17:30N 44°09' E 028°39'1 1.6
2018-Mar-11 16:54N 44°08' E 028°39'0 1.0
2018-Mar-11 16:28N 44°08' E 028°39'0 0.0
2018-Mar-11 15:59N 44°08' E 028°39'0 0.0
2018-Mar-11 15:29N 44°08' E 028°39'0 0.0
2018-Mar-11 15:00N 44°08' E 028°39'0 0.0
2018-Mar-11 14:30N 44°08' E 028°39'0 0.0
2018-Mar-11 13:59N 44°08' E 028°39'0 0.0
2018-Mar-11 13:27N 44°08' E 028°39'0 0.0
2018-Mar-11 12:58N 44°08' E 028°39'0 0.0
2018-Mar-11 12:27N 44°08' E 028°39'0 0.0
2018-Mar-11 12:00N 44°08' E 028°39'0 0.0
2018-Mar-11 11:28N 44°08' E 028°39'0 0.0
2018-Mar-11 10:59N 44°08' E 028°39'0 0.0
2018-Mar-11 10:28N 44°08' E 028°39'0 0.0
2018-Mar-11 09:53N 44°08' E 028°39'0 0.0
2018-Mar-11 09:30N 44°08' E 028°39'0 0.0
2018-Mar-11 09:00N 44°08' E 028°39'0 0.0
2018-Mar-11 08:24N 44°08' E 028°39'0 0.0
2018-Mar-11 08:00N 44°08' E 028°39'0 0.0
2018-Mar-11 07:28N 44°08' E 028°39'0 0.0
2018-Mar-11 07:00N 44°08' E 028°39'0 0.0
2018-Mar-11 06:28N 44°08' E 028°39'0 0.0
2018-Mar-11 06:00N 44°08' E 028°39'0 0.0
2018-Mar-11 05:27N 44°08' E 028°39'0 0.0
2018-Mar-11 04:59N 44°08' E 028°39'0 0.0
2018-Mar-11 04:29N 44°08' E 028°39'0 0.0
2018-Mar-11 03:59N 44°08' E 028°39'0 0.0
2018-Mar-11 03:27N 44°08' E 028°39'0 0.0
2018-Mar-11 02:58N 44°08' E 028°39'0 0.0
2018-Mar-11 02:25N 44°08' E 028°39'0 0.0
2018-Mar-11 01:58N 44°08' E 028°39'0 0.0
2018-Mar-11 01:30N 44°08' E 028°39'0 0.0
2018-Mar-11 01:00N 44°08' E 028°39'0 0.0
2018-Mar-11 00:29N 44°08' E 028°39'0 0.0
2018-Mar-10 23:59N 44°08' E 028°39'0 0.0
2018-Mar-10 23:29N 44°08' E 028°39'0 0.0
2018-Mar-10 23:00N 44°08' E 028°39'0 0.0
2018-Mar-10 22:28N 44°08' E 028°39'0 0.0
2018-Mar-10 22:00N 44°08' E 028°39'0 0.0
2018-Mar-10 21:28N 44°08' E 028°39'0 0.0
2018-Mar-10 20:53N 44°08' E 028°39'0 0.0
2018-Mar-10 20:28N 44°08' E 028°39'0 0.0
2018-Mar-10 20:00N 44°08' E 028°39'0 0.0
2018-Mar-10 19:29N 44°08' E 028°39'0 0.0
2018-Mar-10 18:58N 44°08' E 028°39'0 0.0
2018-Mar-10 18:23N 44°08' E 028°39'0 0.0
2018-Mar-10 18:00N 44°08' E 028°39'0 0.0
2018-Mar-10 17:29N 44°08' E 028°39'0 0.0
2018-Mar-10 16:58N 44°08' E 028°39'0 0.0
2018-Mar-10 16:27N 44°08' E 028°39'0 0.0
2018-Mar-10 15:58N 44°08' E 028°39'0 0.7
2018-Mar-10 15:30N 44°08' E 028°39'0 0.0
2018-Mar-10 15:00N 44°08' E 028°39'0 0.0
2018-Mar-10 14:30N 44°08' E 028°39'0 0.0
2018-Mar-10 13:53N 44°08' E 028°39'0 0.0
2018-Mar-10 13:29N 44°08' E 028°39'0 0.0
2018-Mar-10 12:54N 44°08' E 028°39'0 0.0
2018-Mar-10 12:28N 44°08' E 028°39'0 0.0
2018-Mar-10 11:59N 44°08' E 028°39'0 0.0
2018-Mar-10 11:30N 44°08' E 028°39'0 0.0
2018-Mar-10 10:59N 44°08' E 028°39'0 0.0
2018-Mar-10 10:30N 44°08' E 028°39'0 0.0
2018-Mar-10 09:59N 44°08' E 028°39'0 0.6
2018-Mar-10 09:28N 44°08' E 028°39'0 0.0
2018-Mar-10 08:58N 44°08' E 028°39'0 0.0
2018-Mar-10 08:30N 44°08' E 028°39'0 0.0
2018-Mar-10 07:59N 44°08' E 028°39'0 0.0
2018-Mar-10 07:28N 44°08' E 028°39'0 0.0
2018-Mar-10 06:58N 44°08' E 028°39'0 0.0
2018-Mar-10 06:28N 44°08' E 028°39'0 0.0
2018-Mar-10 05:58N 44°08' E 028°39'0 0.0
2018-Mar-10 05:28N 44°08' E 028°39'0 0.0
2018-Mar-10 04:58N 44°08' E 028°39'0 0.0
2018-Mar-10 04:24N 44°08' E 028°39'0 0.0
2018-Mar-10 04:00N 44°08' E 028°39'0 0.0
2018-Mar-10 03:28N 44°08' E 028°39'0 0.0
2018-Mar-10 02:58N 44°08' E 028°39'0 0.0
2018-Mar-10 02:29N 44°08' E 028°39'0 0.0
2018-Mar-10 01:57N 44°08' E 028°39'0 0.0
2018-Mar-10 01:30N 44°08' E 028°39'0 0.0
2018-Mar-10 01:00N 44°08' E 028°39'0 0.0
2018-Mar-10 00:25N 44°08' E 028°39'0 0.0
2018-Mar-09 23:57N 44°08' E 028°39'0 0.0
2018-Mar-09 23:30N 44°08' E 028°39'0 0.0
2018-Mar-09 23:00N 44°08' E 028°39'0 0.0
2018-Mar-09 22:28N 44°08' E 028°39'0 0.0
2018-Mar-09 21:58N 44°08' E 028°39'0 0.0
2018-Mar-09 21:30N 44°08' E 028°39'0 0.0
2018-Mar-09 20:55N 44°08' E 028°39'0 0.0
2018-Mar-09 20:28N 44°08' E 028°39'0 0.0
2018-Mar-09 19:58N 44°08' E 028°39'0 0.0
2018-Mar-09 19:28N 44°08' E 028°39'0 0.0
2018-Mar-09 18:58N 44°08' E 028°39'1 1.2
2018-Mar-09 18:30N 44°07' E 028°39'0 0.0
2018-Mar-09 18:00N 44°07' E 028°39'1 1.2
2018-Mar-09 17:30N 44°07' E 028°39'1 2.8
2018-Mar-09 17:00N 44°06' E 028°37'0 0.3
2018-Mar-09 16:30N 44°06' E 028°37'1 2.9
2018-Mar-09 16:00N 44°06' E 028°35'9 4.3
2018-Mar-09 14:00N 44°10' E 028°25'3 4.9
2018-Mar-09 13:30N 44°12' E 028°23'3 5.3
2018-Mar-09 13:00N 44°15' E 028°21'3 5.0
2018-Mar-09 12:29N 44°15' E 028°18'2 5.0
2018-Mar-09 12:00N 44°15' E 028°14'4 5.0
2018-Mar-09 11:10N 44°16' E 028°09'  
2018-Mar-05 00:42N 44°16' E 028°06'1 4.4
2018-Mar-05 00:30N 44°16' E 028°07'2 4.2
2018-Mar-04 23:59N 44°16' E 028°10'2 4.3
2018-Mar-04 23:30N 44°16' E 028°13'2 4.2
2018-Mar-04 22:59N 44°15' E 028°16'2 4.4
2018-Mar-04 22:29N 44°15' E 028°19'2 4.1
2018-Mar-04 22:00N 44°15' E 028°21'2 4.4
2018-Mar-04 21:30N 44°13' E 028°23'3 4.2
2018-Mar-04 20:51N 44°10' E 028°24'7 3.7
2018-Mar-04 18:52N 44°06' E 028°33'2 4.3
2018-Mar-04 18:30N 44°06' E 028°35'2 3.4
2018-Mar-04 18:00N 44°06' E 028°37'0 0.2
2018-Mar-04 17:30N 44°06' E 028°37'1 2.4
2018-Mar-04 17:00N 44°07' E 028°39'1 2.0
2018-Mar-04 16:30N 44°08' E 028°39'0 0.0
2018-Mar-04 16:00N 44°08' E 028°39'0 0.0
2018-Mar-04 15:30N 44°08' E 028°39'0 0.0
2018-Mar-04 15:00N 44°08' E 028°39'0 0.0
2018-Mar-04 14:30N 44°08' E 028°39'0 0.0
2018-Mar-04 14:00N 44°08' E 028°39'0 0.0
2018-Mar-04 13:30N 44°08' E 028°39'0 0.0
2018-Mar-04 13:00N 44°08' E 028°39'0 0.9
2018-Mar-04 12:30N 44°08' E 028°39'0 0.0
2018-Mar-04 12:00N 44°08' E 028°39'0 0.0
2018-Mar-04 11:29N 44°08' E 028°39'0 0.0
2018-Mar-04 11:00N 44°08' E 028°39'0 0.0
2018-Mar-04 10:30N 44°08' E 028°39'0 0.0
2018-Mar-04 10:00N 44°08' E 028°39'0 0.0
2018-Mar-04 09:30N 44°08' E 028°39'0 0.0
2018-Mar-04 09:00N 44°08' E 028°39'0 0.0
2018-Mar-04 08:30N 44°08' E 028°39'0 0.0
2018-Mar-04 08:00N 44°08' E 028°39'0 0.0
2018-Mar-04 07:30N 44°08' E 028°39'0 0.0
2018-Mar-04 07:00N 44°08' E 028°39'0 0.0
2018-Mar-04 06:30N 44°08' E 028°39'0 0.0
2018-Mar-04 06:00N 44°08' E 028°39'0 0.0
2018-Mar-04 05:30N 44°08' E 028°39'0 0.0
2018-Mar-04 05:00N 44°08' E 028°39'0 0.0
2018-Mar-04 04:30N 44°08' E 028°39'0 0.0
2018-Mar-04 04:00N 44°08' E 028°39'0 0.0
2018-Mar-04 03:30N 44°08' E 028°39'0 0.0
2018-Mar-04 03:00N 44°08' E 028°39'0 0.0
2018-Mar-04 02:30N 44°08' E 028°39'0 0.0
2018-Mar-04 02:00N 44°08' E 028°39'0 0.0
2018-Mar-04 01:30N 44°08' E 028°39'0 0.0
2018-Mar-04 01:00N 44°08' E 028°39'0 0.0
2018-Mar-04 00:30N 44°08' E 028°39'0 0.0
2018-Mar-04 00:00N 44°08' E 028°39'0 0.0
2018-Mar-03 23:30N 44°08' E 028°39'0 0.0
2018-Mar-03 23:00N 44°08' E 028°39'0 0.0
2018-Mar-03 22:30N 44°08' E 028°39'0 0.0
2018-Mar-03 22:00N 44°08' E 028°39'0 0.0
2018-Mar-03 21:30N 44°08' E 028°39'0 0.0
2018-Mar-03 21:00N 44°08' E 028°39'0 0.0
2018-Mar-03 20:30N 44°08' E 028°39'0 0.0
2018-Mar-03 20:00N 44°08' E 028°39'0 0.0
2018-Mar-03 19:30N 44°08' E 028°39'0 0.0
2018-Mar-03 19:00N 44°08' E 028°39'0 0.0
2018-Mar-03 18:30N 44°08' E 028°39'0 0.0
2018-Mar-03 18:00N 44°08' E 028°39'0 0.0
2018-Mar-03 17:30N 44°08' E 028°39'0 0.0
2018-Mar-03 17:00N 44°08' E 028°39'0 0.0
2018-Mar-03 16:30N 44°08' E 028°39'0 0.0
2018-Mar-03 16:00N 44°08' E 028°39'0 0.0
2018-Mar-03 15:30N 44°08' E 028°39'0 0.0
2018-Mar-03 15:00N 44°08' E 028°39'1 1.4
2018-Mar-03 14:30N 44°07' E 028°39'0 0.0
2018-Mar-03 14:00N 44°07' E 028°39'0 0.0
2018-Mar-03 13:30N 44°07' E 028°39'0 0.0
2018-Mar-03 13:00N 44°07' E 028°39'0 0.0
2018-Mar-03 12:30N 44°07' E 028°39'0 0.0
2018-Mar-03 12:00N 44°07' E 028°39'0 0.0
2018-Mar-03 11:30N 44°07' E 028°39'0 0.0
2018-Mar-03 11:00N 44°07' E 028°39'0 0.0
2018-Mar-03 10:30N 44°07' E 028°39'0 0.0
2018-Mar-03 10:00N 44°07' E 028°39'0 0.0
2018-Mar-03 09:30N 44°07' E 028°39'1 1.2
2018-Mar-03 09:00N 44°08' E 028°39'0 0.2
2018-Mar-03 08:30N 44°08' E 028°39'0 0.0
2018-Mar-03 08:00N 44°08' E 028°39'0 0.0
2018-Mar-03 07:30N 44°08' E 028°39'0 0.0
2018-Mar-03 07:00N 44°08' E 028°39'0 0.0
2018-Mar-03 06:30N 44°08' E 028°39'0 0.0
2018-Mar-03 06:00N 44°08' E 028°39'0 0.0
2018-Mar-03 05:30N 44°08' E 028°39'0 0.0
2018-Mar-03 05:00N 44°08' E 028°39'0 0.0
2018-Mar-03 04:30N 44°08' E 028°39'0 0.0
2018-Mar-03 04:00N 44°08' E 028°39'0 0.0
2018-Mar-03 03:30N 44°08' E 028°39'0 0.0
2018-Mar-03 03:00N 44°08' E 028°39'0 0.0
2018-Mar-03 02:30N 44°08' E 028°39'0 0.0
2018-Mar-03 02:00N 44°08' E 028°39'0 0.0
2018-Mar-03 01:30N 44°08' E 028°39'0 0.0
2018-Mar-03 01:00N 44°08' E 028°39'0 0.0
2018-Mar-03 00:30N 44°08' E 028°39'0 0.0
2018-Mar-03 00:00N 44°08' E 028°39'0 0.0
2018-Mar-02 23:30N 44°08' E 028°39'0 0.0
2018-Mar-02 23:00N 44°08' E 028°39'0 0.0
2018-Mar-02 22:30N 44°08' E 028°39'0 0.0
2018-Mar-02 22:00N 44°08' E 028°39'0 0.0
2018-Mar-02 21:30N 44°08' E 028°39'0 0.0
2018-Mar-02 21:00N 44°08' E 028°39'0 0.0
2018-Mar-02 20:30N 44°08' E 028°39'0 0.0
2018-Mar-02 20:00N 44°08' E 028°39'0 0.0
2018-Mar-02 19:30N 44°08' E 028°39'0 0.0
2018-Mar-02 19:00N 44°08' E 028°39'0 0.0
2018-Mar-02 18:30N 44°08' E 028°39'0 0.0
2018-Mar-02 18:00N 44°08' E 028°39'0 0.0
2018-Mar-02 17:30N 44°08' E 028°39'0 0.0
2018-Mar-02 17:00N 44°08' E 028°39'  
Track history (hours):
 
Tides and Currents Weather Stations Pressure Air Temp Water Temp Dewpoint Dewpoint Depression Visibility Wind Speed Wind Dir Waves Ship Positions

Mercur 309

Last reported at 2018-Mar-12 16:41 UTC. Time now 2018-Jun-24 20:12 UTC.
Position N 44°15' E 028°16'.
Warning: this ship's position is months out of date.

Length 292 m; draft 3.8 m.

Type: Ship. MMSI: 264162004.

Date/timePositionNaut miles runAvg speedWind from/ knotsBaromVisibWave heightAir tempDewpointWater temp
2018-Mar-12 16:41N 44°15' E 028°16'2 4.5
2018-Mar-12 16:10N 44°15' E 028°19'1 4.3
2018-Mar-12 15:55N 44°15' E 028°20'2 4.5
2018-Mar-12 15:30N 44°14' E 028°22'11 3.8
2018-Mar-12 12:38N 44°06' E 028°33'1 4.4
2018-Mar-12 12:31N 44°06' E 028°34'2 4.3
2018-Mar-12 12:00N 44°06' E 028°37'0 0.4
2018-Mar-12 11:30N 44°06' E 028°37'1 2.3
2018-Mar-12 11:00N 44°06' E 028°39'1 2.2
2018-Mar-12 10:30N 44°08' E 028°39'0 0.0
2018-Mar-12 10:01N 44°08' E 028°39'0 0.0
2018-Mar-12 09:30N 44°08' E 028°39'0 0.0
2018-Mar-12 09:01N 44°08' E 028°39'0 0.0
2018-Mar-12 08:31N 44°08' E 028°39'0 0.0
2018-Mar-12 07:59N 44°08' E 028°39'0 0.0
2018-Mar-12 07:31N 44°08' E 028°39'0 0.0
2018-Mar-12 07:00N 44°08' E 028°39'0 0.8
2018-Mar-12 06:31N 44°08' E 028°39'0 0.0
2018-Mar-12 06:01N 44°08' E 028°39'0 0.0
2018-Mar-12 05:31N 44°08' E 028°39'0 0.0
2018-Mar-12 05:00N 44°08' E 028°39'0 0.0
2018-Mar-12 04:31N 44°08' E 028°39'0 0.0
2018-Mar-12 04:00N 44°08' E 028°39'0 0.0
2018-Mar-12 03:30N 44°08' E 028°39'0 0.0
2018-Mar-12 03:01N 44°08' E 028°39'0 0.0
2018-Mar-12 02:30N 44°08' E 028°39'0 0.0
2018-Mar-12 02:00N 44°08' E 028°39'0 0.0
2018-Mar-12 01:30N 44°08' E 028°39'0 0.0
2018-Mar-12 01:01N 44°08' E 028°39'0 0.0
2018-Mar-12 00:30N 44°08' E 028°39'0 0.0
2018-Mar-12 00:00N 44°08' E 028°39'0 0.0
2018-Mar-11 23:31N 44°08' E 028°39'0 0.0
2018-Mar-11 23:01N 44°08' E 028°39'0 0.0
2018-Mar-11 22:30N 44°08' E 028°39'0 0.0
2018-Mar-11 22:00N 44°08' E 028°39'0 0.0
2018-Mar-11 21:31N 44°08' E 028°39'0 0.0
2018-Mar-11 21:01N 44°08' E 028°39'0 0.0
2018-Mar-11 20:30N 44°08' E 028°39'0 0.0
2018-Mar-11 20:01N 44°08' E 028°39'0 0.0
2018-Mar-11 19:31N 44°08' E 028°39'0 0.0
2018-Mar-11 19:00N 44°08' E 028°39'0 0.5
2018-Mar-11 18:31N 44°08' E 028°39'1 1.4
2018-Mar-11 18:01N 44°08' E 028°39'1 2.0
2018-Mar-11 17:30N 44°09' E 028°39'1 1.6
2018-Mar-11 16:54N 44°08' E 028°39'0 1.0
2018-Mar-11 16:28N 44°08' E 028°39'0 0.0
2018-Mar-11 15:59N 44°08' E 028°39'0 0.0
2018-Mar-11 15:29N 44°08' E 028°39'0 0.0
2018-Mar-11 15:00N 44°08' E 028°39'0 0.0
2018-Mar-11 14:30N 44°08' E 028°39'0 0.0
2018-Mar-11 13:59N 44°08' E 028°39'0 0.0
2018-Mar-11 13:27N 44°08' E 028°39'0 0.0
2018-Mar-11 12:58N 44°08' E 028°39'0 0.0
2018-Mar-11 12:27N 44°08' E 028°39'0 0.0
2018-Mar-11 12:00N 44°08' E 028°39'0 0.0
2018-Mar-11 11:28N 44°08' E 028°39'0 0.0
2018-Mar-11 10:59N 44°08' E 028°39'0 0.0
2018-Mar-11 10:28N 44°08' E 028°39'0 0.0
2018-Mar-11 09:53N 44°08' E 028°39'0 0.0
2018-Mar-11 09:30N 44°08' E 028°39'0 0.0
2018-Mar-11 09:00N 44°08' E 028°39'0 0.0
2018-Mar-11 08:24N 44°08' E 028°39'0 0.0
2018-Mar-11 08:00N 44°08' E 028°39'0 0.0
2018-Mar-11 07:28N 44°08' E 028°39'0 0.0
2018-Mar-11 07:00N 44°08' E 028°39'0 0.0
2018-Mar-11 06:28N 44°08' E 028°39'0 0.0
2018-Mar-11 06:00N 44°08' E 028°39'0 0.0
2018-Mar-11 05:27N 44°08' E 028°39'0 0.0
2018-Mar-11 04:59N 44°08' E 028°39'0 0.0
2018-Mar-11 04:29N 44°08' E 028°39'0 0.0
2018-Mar-11 03:59N 44°08' E 028°39'0 0.0
2018-Mar-11 03:27N 44°08' E 028°39'0 0.0
2018-Mar-11 02:58N 44°08' E 028°39'0 0.0
2018-Mar-11 02:25N 44°08' E 028°39'0 0.0
2018-Mar-11 01:58N 44°08' E 028°39'0 0.0
2018-Mar-11 01:30N 44°08' E 028°39'0 0.0
2018-Mar-11 01:00N 44°08' E 028°39'0 0.0
2018-Mar-11 00:29N 44°08' E 028°39'0 0.0
2018-Mar-10 23:59N 44°08' E 028°39'0 0.0
2018-Mar-10 23:29N 44°08' E 028°39'0 0.0
2018-Mar-10 23:00N 44°08' E 028°39'0 0.0
2018-Mar-10 22:28N 44°08' E 028°39'0 0.0
2018-Mar-10 22:00N 44°08' E 028°39'0 0.0
2018-Mar-10 21:28N 44°08' E 028°39'0 0.0
2018-Mar-10 20:53N 44°08' E 028°39'0 0.0
2018-Mar-10 20:28N 44°08' E 028°39'0 0.0
2018-Mar-10 20:00N 44°08' E 028°39'0 0.0
2018-Mar-10 19:29N 44°08' E 028°39'0 0.0
2018-Mar-10 18:58N 44°08' E 028°39'0 0.0
2018-Mar-10 18:23N 44°08' E 028°39'0 0.0
2018-Mar-10 18:00N 44°08' E 028°39'0 0.0
2018-Mar-10 17:29N 44°08' E 028°39'0 0.0
2018-Mar-10 16:58N 44°08' E 028°39'0 0.0
2018-Mar-10 16:27N 44°08' E 028°39'0 0.0
2018-Mar-10 15:58N 44°08' E 028°39'0 0.7
2018-Mar-10 15:30N 44°08' E 028°39'0 0.0
2018-Mar-10 15:00N 44°08' E 028°39'0 0.0
2018-Mar-10 14:30N 44°08' E 028°39'0 0.0
2018-Mar-10 13:53N 44°08' E 028°39'0 0.0
2018-Mar-10 13:29N 44°08' E 028°39'0 0.0
2018-Mar-10 12:54N 44°08' E 028°39'0 0.0
2018-Mar-10 12:28N 44°08' E 028°39'0 0.0
2018-Mar-10 11:59N 44°08' E 028°39'0 0.0
2018-Mar-10 11:30N 44°08' E 028°39'0 0.0
2018-Mar-10 10:59N 44°08' E 028°39'0 0.0
2018-Mar-10 10:30N 44°08' E 028°39'0 0.0
2018-Mar-10 09:59N 44°08' E 028°39'0 0.6
2018-Mar-10 09:28N 44°08' E 028°39'0 0.0
2018-Mar-10 08:58N 44°08' E 028°39'0 0.0
2018-Mar-10 08:30N 44°08' E 028°39'0 0.0
2018-Mar-10 07:59N 44°08' E 028°39'0 0.0
2018-Mar-10 07:28N 44°08' E 028°39'0 0.0
2018-Mar-10 06:58N 44°08' E 028°39'0 0.0
2018-Mar-10 06:28N 44°08' E 028°39'0 0.0
2018-Mar-10 05:58N 44°08' E 028°39'0 0.0
2018-Mar-10 05:28N 44°08' E 028°39'0 0.0
2018-Mar-10 04:58N 44°08' E 028°39'0 0.0
2018-Mar-10 04:24N 44°08' E 028°39'0 0.0
2018-Mar-10 04:00N 44°08' E 028°39'0 0.0
2018-Mar-10 03:28N 44°08' E 028°39'0 0.0
2018-Mar-10 02:58N 44°08' E 028°39'0 0.0
2018-Mar-10 02:29N 44°08' E 028°39'0 0.0
2018-Mar-10 01:57N 44°08' E 028°39'0 0.0
2018-Mar-10 01:30N 44°08' E 028°39'0 0.0
2018-Mar-10 01:00N 44°08' E 028°39'0 0.0
2018-Mar-10 00:25N 44°08' E 028°39'0 0.0
2018-Mar-09 23:57N 44°08' E 028°39'0 0.0
2018-Mar-09 23:30N 44°08' E 028°39'0 0.0
2018-Mar-09 23:00N 44°08' E 028°39'0 0.0
2018-Mar-09 22:28N 44°08' E 028°39'0 0.0
2018-Mar-09 21:58N 44°08' E 028°39'0 0.0
2018-Mar-09 21:30N 44°08' E 028°39'0 0.0
2018-Mar-09 20:55N 44°08' E 028°39'0 0.0
2018-Mar-09 20:28N 44°08' E 028°39'0 0.0
2018-Mar-09 19:58N 44°08' E 028°39'0 0.0
2018-Mar-09 19:28N 44°08' E 028°39'0 0.0
2018-Mar-09 18:58N 44°08' E 028°39'1 1.2
2018-Mar-09 18:30N 44°07' E 028°39'0 0.0
2018-Mar-09 18:00N 44°07' E 028°39'1 1.2
2018-Mar-09 17:30N 44°07' E 028°39'1 2.8
2018-Mar-09 17:00N 44°06' E 028°37'0 0.3
2018-Mar-09 16:30N 44°06' E 028°37'1 2.9
2018-Mar-09 16:00N 44°06' E 028°35'9 4.3
2018-Mar-09 14:00N 44°10' E 028°25'3 4.9
2018-Mar-09 13:30N 44°12' E 028°23'3 5.3
2018-Mar-09 13:00N 44°15' E 028°21'3 5.0
2018-Mar-09 12:29N 44°15' E 028°18'2 5.0
2018-Mar-09 12:00N 44°15' E 028°14'4 5.0
2018-Mar-09 11:10N 44°16' E 028°09'  
2018-Mar-05 00:42N 44°16' E 028°06'1 4.4
2018-Mar-05 00:30N 44°16' E 028°07'2 4.2
2018-Mar-04 23:59N 44°16' E 028°10'2 4.3
2018-Mar-04 23:30N 44°16' E 028°13'2 4.2
2018-Mar-04 22:59N 44°15' E 028°16'2 4.4
2018-Mar-04 22:29N 44°15' E 028°19'2 4.1
2018-Mar-04 22:00N 44°15' E 028°21'2 4.4
2018-Mar-04 21:30N 44°13' E 028°23'3 4.2
2018-Mar-04 20:51N 44°10' E 028°24'7 3.7
2018-Mar-04 18:52N 44°06' E 028°33'2 4.3
2018-Mar-04 18:30N 44°06' E 028°35'2 3.4
2018-Mar-04 18:00N 44°06' E 028°37'0 0.2
2018-Mar-04 17:30N 44°06' E 028°37'1 2.4
2018-Mar-04 17:00N 44°07' E 028°39'1 2.0
2018-Mar-04 16:30N 44°08' E 028°39'0 0.0
2018-Mar-04 16:00N 44°08' E 028°39'0 0.0
2018-Mar-04 15:30N 44°08' E 028°39'0 0.0
2018-Mar-04 15:00N 44°08' E 028°39'0 0.0
2018-Mar-04 14:30N 44°08' E 028°39'0 0.0
2018-Mar-04 14:00N 44°08' E 028°39'0 0.0
2018-Mar-04 13:30N 44°08' E 028°39'0 0.0
2018-Mar-04 13:00N 44°08' E 028°39'0 0.9
2018-Mar-04 12:30N 44°08' E 028°39'0 0.0
2018-Mar-04 12:00N 44°08' E 028°39'0 0.0
2018-Mar-04 11:29N 44°08' E 028°39'0 0.0
2018-Mar-04 11:00N 44°08' E 028°39'0 0.0
2018-Mar-04 10:30N 44°08' E 028°39'0 0.0
2018-Mar-04 10:00N 44°08' E 028°39'0 0.0
2018-Mar-04 09:30N 44°08' E 028°39'0 0.0
2018-Mar-04 09:00N 44°08' E 028°39'0 0.0
2018-Mar-04 08:30N 44°08' E 028°39'0 0.0
2018-Mar-04 08:00N 44°08' E 028°39'0 0.0
2018-Mar-04 07:30N 44°08' E 028°39'0 0.0
2018-Mar-04 07:00N 44°08' E 028°39'0 0.0
2018-Mar-04 06:30N 44°08' E 028°39'0 0.0
2018-Mar-04 06:00N 44°08' E 028°39'0 0.0
2018-Mar-04 05:30N 44°08' E 028°39'0 0.0
2018-Mar-04 05:00N 44°08' E 028°39'0 0.0
2018-Mar-04 04:30N 44°08' E 028°39'0 0.0
2018-Mar-04 04:00N 44°08' E 028°39'0 0.0
2018-Mar-04 03:30N 44°08' E 028°39'0 0.0
2018-Mar-04 03:00N 44°08' E 028°39'0 0.0
2018-Mar-04 02:30N 44°08' E 028°39'0 0.0
2018-Mar-04 02:00N 44°08' E 028°39'0 0.0
2018-Mar-04 01:30N 44°08' E 028°39'0 0.0
2018-Mar-04 01:00N 44°08' E 028°39'0 0.0
2018-Mar-04 00:30N 44°08' E 028°39'0 0.0
2018-Mar-04 00:00N 44°08' E 028°39'0 0.0
2018-Mar-03 23:30N 44°08' E 028°39'0 0.0
2018-Mar-03 23:00N 44°08' E 028°39'0 0.0
2018-Mar-03 22:30N 44°08' E 028°39'0 0.0
2018-Mar-03 22:00N 44°08' E 028°39'0 0.0
2018-Mar-03 21:30N 44°08' E 028°39'0 0.0
2018-Mar-03 21:00N 44°08' E 028°39'0 0.0
2018-Mar-03 20:30N 44°08' E 028°39'0 0.0
2018-Mar-03 20:00N 44°08' E 028°39'0 0.0
2018-Mar-03 19:30N 44°08' E 028°39'0 0.0
2018-Mar-03 19:00N 44°08' E 028°39'0 0.0
2018-Mar-03 18:30N 44°08' E 028°39'0 0.0
2018-Mar-03 18:00N 44°08' E 028°39'0 0.0
2018-Mar-03 17:30N 44°08' E 028°39'0 0.0
2018-Mar-03 17:00N 44°08' E 028°39'0 0.0
2018-Mar-03 16:30N 44°08' E 028°39'0 0.0
2018-Mar-03 16:00N 44°08' E 028°39'0 0.0
2018-Mar-03 15:30N 44°08' E 028°39'0 0.0
2018-Mar-03 15:00N 44°08' E 028°39'1 1.4
2018-Mar-03 14:30N 44°07' E 028°39'0 0.0
2018-Mar-03 14:00N 44°07' E 028°39'0 0.0
2018-Mar-03 13:30N 44°07' E 028°39'0 0.0
2018-Mar-03 13:00N 44°07' E 028°39'0 0.0
2018-Mar-03 12:30N 44°07' E 028°39'0 0.0
2018-Mar-03 12:00N 44°07' E 028°39'0 0.0
2018-Mar-03 11:30N 44°07' E 028°39'0 0.0
2018-Mar-03 11:00N 44°07' E 028°39'0 0.0
2018-Mar-03 10:30N 44°07' E 028°39'0 0.0
2018-Mar-03 10:00N 44°07' E 028°39'0 0.0
2018-Mar-03 09:30N 44°07' E 028°39'1 1.2
2018-Mar-03 09:00N 44°08' E 028°39'0 0.2
2018-Mar-03 08:30N 44°08' E 028°39'0 0.0
2018-Mar-03 08:00N 44°08' E 028°39'0 0.0
2018-Mar-03 07:30N 44°08' E 028°39'0 0.0
2018-Mar-03 07:00N 44°08' E 028°39'0 0.0
2018-Mar-03 06:30N 44°08' E 028°39'0 0.0
2018-Mar-03 06:00N 44°08' E 028°39'0 0.0
2018-Mar-03 05:30N 44°08' E 028°39'0 0.0
2018-Mar-03 05:00N 44°08' E 028°39'0 0.0
2018-Mar-03 04:30N 44°08' E 028°39'0 0.0
2018-Mar-03 04:00N 44°08' E 028°39'0 0.0
2018-Mar-03 03:30N 44°08' E 028°39'0 0.0
2018-Mar-03 03:00N 44°08' E 028°39'0 0.0
2018-Mar-03 02:30N 44°08' E 028°39'0 0.0
2018-Mar-03 02:00N 44°08' E 028°39'0 0.0
2018-Mar-03 01:30N 44°08' E 028°39'0 0.0
2018-Mar-03 01:00N 44°08' E 028°39'0 0.0
2018-Mar-03 00:30N 44°08' E 028°39'0 0.0
2018-Mar-03 00:00N 44°08' E 028°39'0 0.0
2018-Mar-02 23:30N 44°08' E 028°39'0 0.0
2018-Mar-02 23:00N 44°08' E 028°39'0 0.0
2018-Mar-02 22:30N 44°08' E 028°39'0 0.0
2018-Mar-02 22:00N 44°08' E 028°39'0 0.0
2018-Mar-02 21:30N 44°08' E 028°39'0 0.0
2018-Mar-02 21:00N 44°08' E 028°39'0 0.0
2018-Mar-02 20:30N 44°08' E 028°39'0 0.0
2018-Mar-02 20:00N 44°08' E 028°39'0 0.0
2018-Mar-02 19:30N 44°08' E 028°39'0 0.0
2018-Mar-02 19:00N 44°08' E 028°39'0 0.0
2018-Mar-02 18:30N 44°08' E 028°39'0 0.0
2018-Mar-02 18:00N 44°08' E 028°39'0 0.0
2018-Mar-02 17:30N 44°08' E 028°39'0 0.0
2018-Mar-02 17:00N 44°08' E 028°39'  

Dump ship's entire track history